createdAt,value
2023-03-17T00:03:38.540Z,96.60
2023-03-17T00:13:45.842Z,110.10
2023-03-17T00:23:56.049Z,106.30
2023-03-17T00:34:02.338Z,108.30
2023-03-17T00:44:08.957Z,125.20
2023-03-17T00:54:16.701Z,127.50
2023-03-17T01:04:23.889Z,121.40
2023-03-17T01:14:30.335Z,128.70
2023-03-17T01:24:36.694Z,116.30
2023-03-17T01:34:42.982Z,126.20
2023-03-17T01:45:23.711Z,112.50
2023-03-17T01:55:31.549Z,110.10
2023-03-17T02:05:39.851Z,105.20
2023-03-17T02:15:52.461Z,108.60
2023-03-17T02:25:59.090Z,99.00
2023-03-17T02:36:06.051Z,98.40
2023-03-17T02:46:12.516Z,98.80
2023-03-17T02:56:19.004Z,106.70
2023-03-17T03:06:25.390Z,105.00
2023-03-17T03:16:32.061Z,107.60
2023-03-17T03:26:38.558Z,104.40
2023-03-17T03:36:44.932Z,105.00
2023-03-17T03:46:52.024Z,102.30
2023-03-17T03:56:58.487Z,95.40
2023-03-17T04:07:04.854Z,95.80
2023-03-17T04:17:12.099Z,99.00
2023-03-17T04:27:18.896Z,96.40
2023-03-17T04:37:25.469Z,95.90
2023-03-17T04:47:32.589Z,89.00
2023-03-17T04:57:39.286Z,83.30
2023-03-17T05:07:45.904Z,81.10
2023-03-17T05:17:52.385Z,74.90
2023-03-17T05:27:59.852Z,77.50
2023-03-17T05:38:06.164Z,75.50
2023-03-17T05:48:13.556Z,73.40
2023-03-17T05:58:20.436Z,70.00
2023-03-17T06:08:26.990Z,67.10
2023-03-17T06:18:33.235Z,65.20
2023-03-17T06:28:39.525Z,61.90
2023-03-17T06:38:47.269Z,54.50
2023-03-17T06:48:53.618Z,57.10
2023-03-17T06:59:00.175Z,56.30
2023-03-17T07:09:07.124Z,50.70
2023-03-17T07:19:13.389Z,55.50
2023-03-17T07:29:19.732Z,50.60
2023-03-17T07:39:26.105Z,51.40
2023-03-17T07:49:41.283Z,40.40
2023-03-17T07:59:48.656Z,38.90
2023-03-17T08:09:55.097Z,36.00
2023-03-17T08:20:01.434Z,30.50
2023-03-17T08:30:09.047Z,30.10
2023-03-17T08:40:18.961Z,30.50
2023-03-17T08:50:25.463Z,27.10
2023-03-17T09:00:32.001Z,35.20
2023-03-17T09:10:38.955Z,36.20
2023-03-17T09:20:45.235Z,37.90
2023-03-17T09:30:51.596Z,35.10
2023-03-17T09:41:13.354Z,30.80
2023-03-17T09:51:20.785Z,26.90
2023-03-17T10:01:27.612Z,25.00
2023-03-17T10:11:43.447Z,27.10
2023-03-17T10:21:54.583Z,25.90
2023-03-17T10:32:00.972Z,23.90
2023-03-17T10:42:13.109Z,17.50
2023-03-17T10:52:29.100Z,19.90
2023-03-17T11:02:45.492Z,18.00
2023-03-17T11:13:03.039Z,22.80
2023-03-17T11:23:36.960Z,22.30
2023-03-17T11:33:56.159Z,22.70
2023-03-17T11:44:20.786Z,25.40
2023-03-17T11:54:45.752Z,21.30
2023-03-17T12:05:19.026Z,20.90
2023-03-17T12:15:43.039Z,21.30
2023-03-17T12:26:00.557Z,22.90
2023-03-17T12:36:08.263Z,48.00
2023-03-17T12:46:26.689Z,22.50
2023-03-17T12:56:34.470Z,18.10
2023-03-17T13:07:03.694Z,19.10
2023-03-17T13:17:12.757Z,20.00
2023-03-17T13:27:33.968Z,20.30
2023-03-17T13:38:12.662Z,21.90
2023-03-17T13:59:22.677Z,20.70
2023-03-17T14:09:39.264Z,20.80
2023-03-17T14:20:01.527Z,18.90
2023-03-17T14:30:10.907Z,19.50
2023-03-17T14:40:26.806Z,18.90
2023-03-17T14:50:33.867Z,20.50
2023-03-17T15:00:47.178Z,19.30
2023-03-17T15:10:53.575Z,20.20
2023-03-17T15:21:01.496Z,16.90
2023-03-17T15:31:14.043Z,18.50
2023-03-17T15:41:20.457Z,17.90
2023-03-17T15:51:27.010Z,18.00
2023-03-17T16:01:33.444Z,20.80
2023-03-17T16:11:40.558Z,19.50
2023-03-17T16:21:47.912Z,27.00
2023-03-17T16:31:54.223Z,20.40
2023-03-17T16:42:02.405Z,21.90
2023-03-17T16:52:08.846Z,25.10
2023-03-17T17:02:17.070Z,24.50
2023-03-17T17:12:23.387Z,22.50
2023-03-17T17:22:30.448Z,25.50
2023-03-17T17:32:37.192Z,25.80
2023-03-17T17:42:44.812Z,51.30
2023-03-17T17:52:51.097Z,38.00
2023-03-17T18:02:57.767Z,38.50
2023-03-17T18:13:04.094Z,32.20
2023-03-17T18:23:10.444Z,31.30
2023-03-17T18:33:19.739Z,33.30
2023-03-17T18:43:26.070Z,34.30
2023-03-17T18:53:34.808Z,32.30
2023-03-17T19:03:41.260Z,36.10
2023-03-17T19:13:47.828Z,42.50
2023-03-17T19:23:54.448Z,36.20
2023-03-17T19:34:00.917Z,34.90
2023-03-17T19:44:07.999Z,37.00
2023-03-17T19:54:14.370Z,37.10
2023-03-17T20:04:23.052Z,36.20
2023-03-17T20:14:29.533Z,37.20
2023-03-17T20:24:36.352Z,43.70
2023-03-17T20:34:44.434Z,44.30
2023-03-17T20:44:54.040Z,42.70
2023-03-17T20:55:01.229Z,41.30
2023-03-17T21:05:08.614Z,43.40
2023-03-17T21:15:15.875Z,50.90
2023-03-17T21:25:22.629Z,44.40
2023-03-17T21:35:31.666Z,52.90
2023-03-17T21:45:38.546Z,42.70
2023-03-17T21:55:45.231Z,46.50
2023-03-17T22:05:51.966Z,48.60
2023-03-17T22:16:00.857Z,48.30
2023-03-17T22:26:07.725Z,48.70
2023-03-17T22:36:14.112Z,49.80
2023-03-17T22:46:21.063Z,49.20
2023-03-17T22:56:28.005Z,52.00
2023-03-17T23:06:35.287Z,55.20
2023-03-17T23:16:42.018Z,45.40
2023-03-17T23:26:48.434Z,48.50
2023-03-17T23:36:54.798Z,48.30
2023-03-17T23:47:01.120Z,42.50
2023-03-17T23:57:07.718Z,44.70
